createdAt,value
2022-10-05T00:00:13.773Z,100594.88
2022-10-05T00:03:09.594Z,100598.45
2022-10-05T00:05:36.100Z,100594.94
2022-10-05T00:08:22.114Z,100593.66
2022-10-05T00:10:50.801Z,100590.48
2022-10-05T00:13:23.676Z,100587.38
2022-10-05T00:15:57.584Z,100597.70
2022-10-05T00:18:23.991Z,100609.89
2022-10-05T00:20:50.348Z,100620.48
2022-10-05T00:23:29.199Z,100611.41
2022-10-05T00:26:10.760Z,100612.88
2022-10-05T00:28:37.306Z,100607.96
2022-10-05T00:31:14.795Z,100603.14
2022-10-05T00:33:41.227Z,100595.45
2022-10-05T00:36:07.898Z,100593.15
2022-10-05T00:38:34.489Z,100596.16
2022-10-05T00:41:22.927Z,100600.07
2022-10-05T00:44:16.787Z,100607.48
2022-10-05T00:46:53.689Z,100605.00
2022-10-05T00:49:43.118Z,100604.77
2022-10-05T00:52:59.366Z,100604.45
2022-10-05T00:55:45.728Z,100597.67
2022-10-05T00:58:27.311Z,100596.63
2022-10-05T01:01:14.600Z,100589.11
2022-10-05T01:04:15.499Z,100588.89
2022-10-05T01:06:55.803Z,100579.85
2022-10-05T01:09:47.203Z,100567.79
2022-10-05T01:12:41.135Z,100566.27
2022-10-05T01:15:26.629Z,100563.24
2022-10-05T01:18:17.313Z,100556.00
2022-10-05T01:21:05.466Z,100559.39
2022-10-05T01:23:53.816Z,100570.23
2022-10-05T01:26:57.735Z,100570.71
2022-10-05T01:29:43.178Z,100561.21
2022-10-05T01:32:31.073Z,100547.48
2022-10-05T01:35:07.962Z,100547.56
2022-10-05T01:37:58.237Z,100541.99
2022-10-05T01:40:36.236Z,100545.63
2022-10-05T01:43:18.275Z,100552.38
2022-10-05T01:45:59.932Z,100563.05
2022-10-05T01:48:38.689Z,100557.04
2022-10-05T01:51:27.200Z,100554.27
2022-10-05T01:54:17.517Z,100556.05
2022-10-05T01:57:11.852Z,100554.93
2022-10-05T02:00:07.163Z,100552.33
2022-10-05T02:03:07.744Z,100550.38
2022-10-05T02:05:51.064Z,100547.69
2022-10-05T02:08:26.340Z,100548.25
2022-10-05T02:11:05.560Z,100552.38
2022-10-05T02:13:44.913Z,100548.63
2022-10-05T02:16:24.118Z,100552.02
2022-10-05T02:19:02.933Z,100553.36
2022-10-05T02:21:33.591Z,100546.31
2022-10-05T02:24:08.107Z,100547.60
2022-10-05T02:26:36.058Z,100551.06
2022-10-05T02:29:08.924Z,100554.62
2022-10-05T02:31:42.750Z,100550.38
2022-10-05T02:34:29.934Z,100546.22
2022-10-05T02:37:25.472Z,100536.57
2022-10-05T02:40:14.471Z,100531.09
2022-10-05T02:42:59.457Z,100525.16
2022-10-05T02:45:48.073Z,100521.52
2022-10-05T02:48:21.948Z,100520.77
2022-10-05T02:50:57.613Z,100521.94
2022-10-05T02:53:41.786Z,100523.35
2022-10-05T02:56:32.800Z,100521.41
2022-10-05T02:59:05.262Z,100526.02
2022-10-05T03:01:40.065Z,100519.59
2022-10-05T03:04:42.317Z,100511.31
2022-10-05T03:07:17.185Z,100501.32
2022-10-05T03:10:01.415Z,100506.65
2022-10-05T03:12:57.605Z,100516.20
2022-10-05T03:16:03.086Z,100524.23
2022-10-05T03:18:54.414Z,100534.52
2022-10-05T03:21:52.525Z,100529.45
2022-10-05T03:24:32.226Z,100541.48
2022-10-05T03:27:05.453Z,100540.34
2022-10-05T03:29:53.736Z,100542.39
2022-10-05T03:32:25.327Z,100543.31
2022-10-05T03:34:56.097Z,100544.67
2022-10-05T03:37:30.224Z,100546.86
2022-10-05T03:40:15.463Z,100542.41
2022-10-05T03:43:16.533Z,100543.68
2022-10-05T03:46:13.726Z,100535.75
2022-10-05T03:48:52.180Z,100529.88
2022-10-05T03:51:32.470Z,100535.06
2022-10-05T03:54:09.573Z,100530.65
2022-10-05T03:56:41.230Z,100523.44
2022-10-05T03:59:16.233Z,100521.32
2022-10-05T04:01:51.497Z,100516.96
2022-10-05T04:04:25.845Z,100518.75
2022-10-05T04:06:54.513Z,100513.33
2022-10-05T04:09:27.472Z,100503.70
2022-10-05T04:12:29.444Z,100502.73
2022-10-05T04:15:08.473Z,100502.23
2022-10-05T04:17:54.004Z,100494.82
2022-10-05T04:20:43.844Z,100486.64
2022-10-05T04:23:14.206Z,100485.14
2022-10-05T04:26:03.705Z,100492.40
2022-10-05T04:28:56.540Z,100495.41
2022-10-05T04:31:51.705Z,100502.77
2022-10-05T04:34:42.120Z,100497.79
2022-10-05T04:37:19.546Z,100489.98
2022-10-05T04:40:05.568Z,100489.04
2022-10-05T04:43:06.823Z,100491.08
2022-10-05T04:45:55.884Z,100489.80
2022-10-05T04:48:45.535Z,100482.20
2022-10-05T04:51:18.561Z,100492.09
2022-10-05T04:54:08.080Z,100490.03
2022-10-05T04:56:40.208Z,100489.86
2022-10-05T04:59:26.860Z,100486.59
2022-10-05T05:02:31.641Z,100486.88
2022-10-05T05:05:22.984Z,100483.97
2022-10-05T05:08:19.649Z,100487.52
2022-10-05T05:10:52.349Z,100487.93
2022-10-05T05:13:28.126Z,100483.21
2022-10-05T05:16:24.344Z,100480.59
2022-10-05T05:19:18.860Z,100480.54
2022-10-05T05:22:03.739Z,100477.65
2022-10-05T05:25:16.647Z,100477.66
2022-10-05T05:28:19.292Z,100477.98
2022-10-05T05:30:56.225Z,100480.17
2022-10-05T05:33:40.586Z,100483.98
2022-10-05T05:36:26.016Z,100487.50
2022-10-05T05:39:26.313Z,100487.20
2022-10-05T05:42:17.280Z,100486.56
2022-10-05T05:44:59.620Z,100487.85
2022-10-05T05:47:39.571Z,100491.14
2022-10-05T05:50:37.537Z,100488.61
2022-10-05T05:53:16.241Z,100493.16
2022-10-05T05:55:52.436Z,100497.70
2022-10-05T05:58:26.782Z,100504.81
2022-10-05T06:01:03.805Z,100508.27
2022-10-05T06:03:39.112Z,100507.15
2022-10-05T06:06:16.455Z,100508.30
2022-10-05T06:09:04.311Z,100508.65
2022-10-05T06:11:46.901Z,100514.52
2022-10-05T06:14:22.489Z,100517.59
2022-10-05T06:17:05.000Z,100515.27
2022-10-05T06:19:33.988Z,100505.45
2022-10-05T06:22:14.459Z,100492.81
2022-10-05T06:25:07.358Z,100480.00
2022-10-05T06:27:38.186Z,100476.58
2022-10-05T06:30:17.080Z,100474.46
2022-10-05T06:32:50.178Z,100476.02
2022-10-05T06:35:44.635Z,100470.39
2022-10-05T06:38:14.177Z,100468.09
2022-10-05T06:41:14.873Z,100465.68
2022-10-05T06:44:09.163Z,100467.33
2022-10-05T06:46:51.956Z,100465.98
2022-10-05T06:49:57.605Z,100471.83
2022-10-05T06:52:59.838Z,100474.89
2022-10-05T06:55:33.905Z,100483.75
2022-10-05T06:58:16.048Z,100486.08
2022-10-05T07:01:02.622Z,100491.30
2022-10-05T07:03:44.595Z,100493.98
2022-10-05T07:06:22.715Z,100482.98
2022-10-05T07:09:26.875Z,100475.92
2022-10-05T07:12:02.401Z,100477.25
2022-10-05T07:14:50.009Z,100479.61
2022-10-05T07:17:28.419Z,100486.68
2022-10-05T07:20:30.966Z,100500.99
2022-10-05T07:23:02.867Z,100505.34
2022-10-05T07:26:17.077Z,100475.90
2022-10-05T07:28:57.429Z,100434.27
2022-10-05T07:31:45.077Z,100437.15
2022-10-05T07:34:36.457Z,100447.85
2022-10-05T07:37:33.831Z,100446.07
2022-10-05T07:40:18.817Z,100463.61
2022-10-05T07:43:04.356Z,100457.04
2022-10-05T07:45:51.945Z,100449.48
2022-10-05T07:48:21.937Z,100458.56
2022-10-05T07:50:59.419Z,100454.13
2022-10-05T07:53:37.252Z,100449.84
2022-10-05T07:56:36.545Z,100440.15
2022-10-05T07:59:14.533Z,100434.10
2022-10-05T08:01:47.852Z,100430.67
2022-10-05T08:04:27.272Z,100413.20
2022-10-05T08:07:10.988Z,100407.64
2022-10-05T08:09:48.548Z,100418.02
2022-10-05T08:12:33.634Z,100431.11
2022-10-05T08:15:17.326Z,100448.52
2022-10-05T08:17:52.244Z,100455.70
2022-10-05T08:20:32.330Z,100452.88
2022-10-05T08:23:35.399Z,100457.86
2022-10-05T08:26:13.761Z,100459.77
2022-10-05T08:28:59.752Z,100469.55
2022-10-05T08:31:33.051Z,100457.55
2022-10-05T08:34:25.650Z,100449.92
2022-10-05T08:37:03.320Z,100437.40
2022-10-05T08:39:35.836Z,100442.23
2022-10-05T08:42:40.412Z,100440.65
2022-10-05T08:45:30.088Z,100430.48
2022-10-05T08:48:22.324Z,100420.85
2022-10-05T08:51:20.452Z,100432.97
2022-10-05T08:54:11.461Z,100437.91
2022-10-05T08:57:02.601Z,100439.58
2022-10-05T08:59:31.629Z,100434.96
2022-10-05T09:02:13.419Z,100447.98
2022-10-05T09:05:05.384Z,100439.81
2022-10-05T09:07:53.544Z,100430.33
2022-10-05T09:10:31.757Z,100424.12
2022-10-05T09:13:26.822Z,100426.88
2022-10-05T09:16:27.615Z,100430.25
2022-10-05T09:19:32.084Z,100436.15
2022-10-05T09:22:37.694Z,100427.06
2022-10-05T09:25:42.053Z,100426.25
2022-10-05T09:28:50.149Z,100426.19
2022-10-05T09:32:04.801Z,100421.71
2022-10-05T09:35:04.658Z,100421.14
2022-10-05T09:38:02.442Z,100415.45
2022-10-05T09:40:51.097Z,100413.77
2022-10-05T09:43:45.481Z,100418.61
2022-10-05T09:46:11.965Z,100423.25
2022-10-05T09:48:55.962Z,100426.11
2022-10-05T09:51:51.617Z,100428.69
2022-10-05T09:54:37.389Z,100425.41
2022-10-05T09:57:17.617Z,100425.27
2022-10-05T10:00:29.173Z,100430.75
2022-10-05T10:03:28.336Z,100427.98
2022-10-05T10:06:13.169Z,100431.75
2022-10-05T10:09:05.865Z,100432.61
2022-10-05T10:12:17.961Z,100431.29
2022-10-05T10:15:18.346Z,100434.49
2022-10-05T10:18:06.394Z,100430.45
2022-10-05T10:20:38.020Z,100423.84
2022-10-05T10:23:30.089Z,100424.45
2022-10-05T10:25:56.473Z,100420.21
2022-10-05T10:28:44.704Z,100421.73
2022-10-05T10:31:36.734Z,100418.10
2022-10-05T10:34:29.056Z,100417.52
2022-10-05T10:37:23.391Z,100413.75
2022-10-05T10:40:06.604Z,100415.52
2022-10-05T10:42:47.150Z,100412.53
2022-10-05T10:45:40.873Z,100411.76
2022-10-05T10:48:30.867Z,100408.65
2022-10-05T10:51:11.913Z,100406.42
2022-10-05T10:54:11.936Z,100411.15
2022-10-05T10:56:53.450Z,100409.02
2022-10-05T10:59:42.196Z,100421.39
2022-10-05T11:02:27.587Z,100421.70
2022-10-05T11:05:29.076Z,100423.34
2022-10-05T11:08:33.597Z,100418.83
2022-10-05T11:11:30.457Z,100432.26
2022-10-05T11:14:20.415Z,100426.50
2022-10-05T11:17:05.725Z,100418.89
2022-10-05T11:20:06.168Z,100421.30
2022-10-05T11:22:58.526Z,100423.10
2022-10-05T11:25:47.907Z,100422.98
2022-10-05T11:28:40.162Z,100427.04
2022-10-05T11:31:26.140Z,100429.63
2022-10-05T11:34:11.480Z,100429.61
2022-10-05T11:36:49.762Z,100433.11
2022-10-05T11:39:38.749Z,100430.89
2022-10-05T11:42:42.657Z,100434.57
2022-10-05T11:45:21.152Z,100440.96
2022-10-05T11:48:00.129Z,100440.20
2022-10-05T11:50:56.589Z,100436.04
2022-10-05T11:53:34.383Z,100426.74
2022-10-05T11:56:05.582Z,100419.67
2022-10-05T11:58:40.621Z,100419.40
2022-10-05T12:01:34.148Z,100416.66
2022-10-05T12:04:29.933Z,100401.31
2022-10-05T12:07:36.780Z,100398.22
2022-10-05T12:10:32.088Z,100393.06
2022-10-05T12:13:04.311Z,100388.81
2022-10-05T12:15:49.838Z,100385.54
2022-10-05T12:18:43.141Z,100383.73
2022-10-05T12:21:19.870Z,100379.79
2022-10-05T12:23:53.254Z,100380.04
2022-10-05T12:26:29.543Z,100377.75
2022-10-05T12:29:15.445Z,100375.85
2022-10-05T12:32:08.118Z,100373.54
2022-10-05T12:34:56.522Z,100377.00
2022-10-05T12:37:47.428Z,100381.63
2022-10-05T12:40:20.286Z,100380.47
2022-10-05T12:42:57.132Z,100382.85
2022-10-05T12:45:52.621Z,100379.17
2022-10-05T12:48:28.810Z,100378.75
2022-10-05T12:51:24.627Z,100374.25
2022-10-05T12:53:53.917Z,100367.29
2022-10-05T12:56:44.085Z,100368.63
2022-10-05T12:59:26.748Z,100368.27
2022-10-05T13:01:53.210Z,100375.10
2022-10-05T13:04:34.397Z,100377.78
2022-10-05T13:07:27.897Z,100369.87
2022-10-05T13:10:22.058Z,100375.98
2022-10-05T13:13:32.295Z,100385.88
2022-10-05T13:16:06.918Z,100389.07
2022-10-05T13:18:58.478Z,100380.83
2022-10-05T13:21:49.303Z,100380.02
2022-10-05T13:24:30.189Z,100366.72
2022-10-05T13:27:07.829Z,100365.41
2022-10-05T13:30:01.574Z,100369.44
2022-10-05T13:32:36.567Z,100361.79
2022-10-05T13:35:16.235Z,100364.66
2022-10-05T13:38:05.683Z,100357.75
2022-10-05T13:40:44.584Z,100353.16
2022-10-05T13:43:22.979Z,100344.98
2022-10-05T13:46:00.814Z,100340.42
2022-10-05T13:48:55.219Z,100335.27
2022-10-05T13:51:57.192Z,100327.48
2022-10-05T13:54:37.380Z,100323.41
2022-10-05T13:57:29.449Z,100324.70
2022-10-05T14:00:12.850Z,100319.17
2022-10-05T14:02:45.661Z,100321.17
2022-10-05T14:05:21.807Z,100322.27
2022-10-05T14:08:01.373Z,100326.10
2022-10-05T14:10:47.078Z,100326.97
2022-10-05T14:13:30.985Z,100330.60
2022-10-05T14:16:24.845Z,100327.45
2022-10-05T14:18:54.640Z,100330.00
2022-10-05T14:21:32.536Z,100329.77
2022-10-05T14:24:45.164Z,100333.85
2022-10-05T14:27:21.457Z,100340.21
2022-10-05T14:30:13.677Z,100339.98
2022-10-05T14:33:03.409Z,100343.84
2022-10-05T14:35:54.165Z,100346.29
2022-10-05T14:38:32.266Z,100340.41
2022-10-05T14:41:18.742Z,100336.34
2022-10-05T14:44:04.722Z,100338.05
2022-10-05T14:46:32.500Z,100338.65
2022-10-05T14:49:21.637Z,100334.52
2022-10-05T14:51:52.915Z,100327.03
2022-10-05T14:54:26.834Z,100322.20
2022-10-05T14:57:12.036Z,100320.17
2022-10-05T15:00:00.204Z,100324.31
2022-10-05T15:02:48.869Z,100321.83
2022-10-05T15:05:36.038Z,100318.42
2022-10-05T15:08:11.664Z,100317.72
2022-10-05T15:10:49.458Z,100314.98
2022-10-05T15:13:20.687Z,100313.69
2022-10-05T15:15:54.154Z,100312.10
2022-10-05T15:18:44.137Z,100314.98
2022-10-05T15:21:25.948Z,100321.76
2022-10-05T15:24:08.738Z,100322.28
2022-10-05T15:26:47.113Z,100318.06
2022-10-05T15:29:32.392Z,100316.34
2022-10-05T15:32:28.981Z,100313.01
2022-10-05T15:35:35.556Z,100309.63
2022-10-05T15:38:02.015Z,100308.02
2022-10-05T15:40:58.286Z,100309.70
2022-10-05T15:43:30.687Z,100314.16
2022-10-05T15:46:17.631Z,100312.77
2022-10-05T15:48:58.421Z,100311.06
2022-10-05T15:51:55.063Z,100308.29
2022-10-05T15:54:50.539Z,100302.58
2022-10-05T15:57:25.525Z,100296.73
2022-10-05T16:00:29.588Z,100295.36
2022-10-05T16:03:32.452Z,100293.92
2022-10-05T16:06:58.365Z,100296.60
2022-10-05T16:09:44.315Z,100305.05
2022-10-05T16:12:29.493Z,100299.96
2022-10-05T16:15:28.088Z,100302.86
2022-10-05T16:18:17.923Z,100298.94
2022-10-05T16:20:56.365Z,100297.28
2022-10-05T16:23:44.858Z,100297.98
2022-10-05T16:26:45.679Z,100299.98
2022-10-05T16:29:34.895Z,100294.55
2022-10-05T16:32:21.898Z,100299.61
2022-10-05T16:35:04.745Z,100298.88
2022-10-05T16:37:48.299Z,100300.79
2022-10-05T16:40:18.624Z,100299.30
2022-10-05T16:43:03.488Z,100300.12
2022-10-05T16:46:12.288Z,100306.48
2022-10-05T16:48:44.399Z,100304.36
2022-10-05T16:51:29.757Z,100305.21
2022-10-05T16:54:20.439Z,100301.91
2022-10-05T16:57:05.791Z,100301.02
2022-10-05T17:00:05.978Z,100299.86
2022-10-05T17:02:45.787Z,100299.59
2022-10-05T17:05:44.607Z,100300.61
2022-10-05T17:08:32.864Z,100300.73
2022-10-05T17:11:21.735Z,100303.84
2022-10-05T17:14:30.656Z,100300.04
2022-10-05T17:17:19.328Z,100301.26
2022-10-05T17:20:24.403Z,100298.09
2022-10-05T17:23:01.614Z,100303.70
2022-10-05T17:25:47.069Z,100302.90
2022-10-05T17:28:41.136Z,100297.73
2022-10-05T17:31:27.897Z,100292.09
2022-10-05T17:34:15.970Z,100288.76
2022-10-05T17:36:57.108Z,100286.61
2022-10-05T17:39:50.454Z,100278.33
2022-10-05T17:42:44.705Z,100279.34
2022-10-05T17:45:14.224Z,100279.96
2022-10-05T17:48:03.673Z,100276.89
2022-10-05T17:51:01.603Z,100281.14
2022-10-05T17:54:02.062Z,100277.28
2022-10-05T17:56:53.767Z,100272.23
2022-10-05T17:59:55.087Z,100272.16
2022-10-05T18:02:40.026Z,100271.40
2022-10-05T18:05:13.918Z,100268.27
2022-10-05T18:07:48.228Z,100268.14
2022-10-05T18:10:28.219Z,100267.11
2022-10-05T18:12:58.065Z,100271.16
2022-10-05T18:15:24.374Z,100269.73
2022-10-05T18:17:56.792Z,100268.71
2022-10-05T18:20:23.349Z,100268.16
2022-10-05T18:22:52.946Z,100270.34
2022-10-05T18:25:32.413Z,100268.84
2022-10-05T18:28:11.198Z,100268.35
2022-10-05T18:30:54.360Z,100267.97
2022-10-05T18:33:58.964Z,100269.08
2022-10-05T18:37:01.311Z,100268.45
2022-10-05T18:39:35.247Z,100265.23
2022-10-05T18:42:06.576Z,100267.30
2022-10-05T18:44:56.939Z,100264.03
2022-10-05T18:47:38.532Z,100265.84
2022-10-05T18:50:38.807Z,100268.27
2022-10-05T18:53:38.663Z,100264.35
2022-10-05T18:56:25.394Z,100258.56
2022-10-05T18:59:02.738Z,100259.91
2022-10-05T19:01:55.403Z,100255.15
2022-10-05T19:04:33.725Z,100248.92
2022-10-05T19:07:20.451Z,100252.70
2022-10-05T19:10:15.451Z,100255.00
2022-10-05T19:13:05.773Z,100251.06
2022-10-05T19:15:43.729Z,100251.77
2022-10-05T19:18:24.273Z,100249.26
2022-10-05T19:21:17.044Z,100250.19
2022-10-05T19:24:09.347Z,100251.67
2022-10-05T19:26:56.073Z,100252.77
2022-10-05T19:30:03.092Z,100257.48
2022-10-05T19:32:54.735Z,100247.04
2022-10-05T19:36:00.358Z,100250.98
2022-10-05T19:38:39.501Z,100252.83
2022-10-05T19:41:20.642Z,100253.11
2022-10-05T19:44:18.583Z,100254.78
2022-10-05T19:46:58.012Z,100252.99
2022-10-05T19:49:42.971Z,100255.49
2022-10-05T19:52:21.815Z,100255.98
2022-10-05T19:55:04.095Z,100256.35
2022-10-05T19:57:31.246Z,100258.22
2022-10-05T19:59:59.337Z,100260.13
2022-10-05T20:02:27.418Z,100264.77
2022-10-05T20:05:05.848Z,100260.30
2022-10-05T20:07:33.847Z,100271.52
2022-10-05T20:10:30.134Z,100266.45
2022-10-05T20:12:59.619Z,100268.29
2022-10-05T20:15:48.378Z,100268.41
2022-10-05T20:19:02.778Z,100267.33
2022-10-05T20:21:46.766Z,100273.66
2022-10-05T20:24:16.787Z,100274.46
2022-10-05T20:27:15.775Z,100283.18
2022-10-05T20:29:44.770Z,100277.23
2022-10-05T20:32:17.145Z,100281.00
2022-10-05T20:34:46.736Z,100284.77
2022-10-05T20:37:16.108Z,100286.42
2022-10-05T20:39:43.287Z,100288.21
2022-10-05T20:42:14.971Z,100294.68
2022-10-05T20:44:42.206Z,100292.66
2022-10-05T20:47:09.696Z,100298.95
2022-10-05T20:49:40.474Z,100296.02
2022-10-05T20:52:28.055Z,100292.33
2022-10-05T20:54:58.273Z,100289.38
2022-10-05T20:57:26.036Z,100288.39
2022-10-05T20:59:53.039Z,100293.63
2022-10-05T21:02:26.201Z,100289.10
2022-10-05T21:04:52.860Z,100293.58
2022-10-05T21:07:21.198Z,100287.98
2022-10-05T21:09:48.518Z,100292.13
2022-10-05T21:12:15.996Z,100289.02
2022-10-05T21:14:42.893Z,100286.88
2022-10-05T21:17:13.003Z,100287.76
2022-10-05T21:19:39.713Z,100286.64
2022-10-05T21:22:07.919Z,100293.27
2022-10-05T21:24:36.371Z,100293.59
2022-10-05T21:27:08.210Z,100293.45
2022-10-05T21:29:36.535Z,100290.38
2022-10-05T21:32:07.881Z,100289.04
2022-10-05T21:34:34.640Z,100284.30
2022-10-05T21:37:01.238Z,100286.32
2022-10-05T21:39:27.693Z,100286.95
2022-10-05T21:41:54.633Z,100286.21
2022-10-05T21:44:21.567Z,100287.31
2022-10-05T21:46:48.970Z,100291.08
2022-10-05T21:49:18.898Z,100289.92
2022-10-05T21:51:47.055Z,100294.87
2022-10-05T21:54:18.945Z,100296.60
2022-10-05T21:56:50.920Z,100294.73
2022-10-05T21:59:26.033Z,100294.48
2022-10-05T22:01:52.536Z,100291.99
2022-10-05T22:04:19.013Z,100290.59
2022-10-05T22:06:53.970Z,100286.88
2022-10-05T22:09:20.498Z,100289.68
2022-10-05T22:11:48.674Z,100289.92
2022-10-05T22:14:15.825Z,100293.12
2022-10-05T22:16:45.500Z,100290.36
2022-10-05T22:19:19.158Z,100290.80
2022-10-05T22:21:52.298Z,100288.98
2022-10-05T22:24:22.760Z,100287.50
2022-10-05T22:26:50.976Z,100287.96
2022-10-05T22:29:18.351Z,100287.94
2022-10-05T22:31:48.097Z,100289.05
2022-10-05T22:34:16.005Z,100285.66
2022-10-05T22:36:42.752Z,100289.77
2022-10-05T22:39:09.255Z,100287.32
2022-10-05T22:41:35.767Z,100289.23
2022-10-05T22:44:02.300Z,100286.49
2022-10-05T22:46:28.895Z,100286.39
2022-10-05T22:48:55.382Z,100282.88
2022-10-05T22:51:21.902Z,100281.77
2022-10-05T22:53:48.596Z,100285.05
2022-10-05T22:56:15.882Z,100286.88
2022-10-05T22:58:46.310Z,100286.25
2022-10-05T23:01:16.182Z,100286.09
2022-10-05T23:03:43.619Z,100287.86
2022-10-05T23:06:13.488Z,100289.55
2022-10-05T23:08:46.939Z,100292.45
2022-10-05T23:11:20.066Z,100289.30
2022-10-05T23:13:51.669Z,100293.48
2022-10-05T23:16:20.685Z,100288.06
2022-10-05T23:18:49.246Z,100288.04
2022-10-05T23:21:17.515Z,100291.42
2022-10-05T23:23:46.867Z,100293.64
2022-10-05T23:26:13.478Z,100297.77
2022-10-05T23:28:45.908Z,100302.77
2022-10-05T23:31:18.623Z,100296.98
2022-10-05T23:33:45.610Z,100300.13
2022-10-05T23:36:24.189Z,100297.40
2022-10-05T23:38:51.127Z,100301.20
2022-10-05T23:41:19.387Z,100301.33
2022-10-05T23:43:49.232Z,100299.78
2022-10-05T23:46:17.289Z,100297.17
2022-10-05T23:48:43.882Z,100299.39
2022-10-05T23:51:13.235Z,100294.17
2022-10-05T23:53:39.782Z,100293.94
2022-10-05T23:56:06.648Z,100294.23
2022-10-05T23:58:35.886Z,100298.33
